sensor_id;sensor_type;location;lat;lon;timestamp;P1;durP1;ratioP1;P2;durP2;ratioP2
71969;SDS011;59838;52.152;5.436;2023-03-01T00:02:07;5.43;;;3.50;;
71969;SDS011;59838;52.152;5.436;2023-03-01T00:04:33;6.25;;;3.90;;
71969;SDS011;59838;52.152;5.436;2023-03-01T00:07:01;5.38;;;3.92;;
71969;SDS011;59838;52.152;5.436;2023-03-01T00:09:28;6.28;;;3.60;;
71969;SDS011;59838;52.152;5.436;2023-03-01T00:11:54;6.82;;;4.35;;
71969;SDS011;59838;52.152;5.436;2023-03-01T00:14:21;5.90;;;3.17;;
71969;SDS011;59838;52.152;5.436;2023-03-01T00:16:48;5.68;;;3.20;;
71969;SDS011;59838;52.152;5.436;2023-03-01T00:19:15;6.38;;;3.47;;
71969;SDS011;59838;52.152;5.436;2023-03-01T00:21:44;4.32;;;3.58;;
71969;SDS011;59838;52.152;5.436;2023-03-01T00:24:12;7.10;;;4.75;;
71969;SDS011;59838;52.152;5.436;2023-03-01T00:26:39;6.43;;;3.60;;
71969;SDS011;59838;52.152;5.436;2023-03-01T00:29:05;11.85;;;4.15;;
71969;SDS011;59838;52.152;5.436;2023-03-01T00:31:32;9.38;;;4.53;;
71969;SDS011;59838;52.152;5.436;2023-03-01T00:34:00;10.82;;;4.80;;
71969;SDS011;59838;52.152;5.436;2023-03-01T00:36:30;9.13;;;5.13;;
71969;SDS011;59838;52.152;5.436;2023-03-01T00:38:59;9.67;;;4.93;;
71969;SDS011;59838;52.152;5.436;2023-03-01T00:41:26;8.32;;;4.20;;
71969;SDS011;59838;52.152;5.436;2023-03-01T00:43:53;8.98;;;4.93;;
71969;SDS011;59838;52.152;5.436;2023-03-01T00:46:21;7.78;;;4.20;;
71969;SDS011;59838;52.152;5.436;2023-03-01T00:48:49;6.32;;;4.43;;
71969;SDS011;59838;52.152;5.436;2023-03-01T00:51:16;7.63;;;4.37;;
71969;SDS011;59838;52.152;5.436;2023-03-01T00:53:45;7.70;;;4.18;;
71969;SDS011;59838;52.152;5.436;2023-03-01T00:56:13;12.02;;;5.15;;
71969;SDS011;59838;52.152;5.436;2023-03-01T00:58:41;7.78;;;4.85;;
71969;SDS011;59838;52.152;5.436;2023-03-01T01:01:15;6.28;;;4.40;;
71969;SDS011;59838;52.152;5.436;2023-03-01T01:06:24;8.77;;;4.35;;
71969;SDS011;59838;52.152;5.436;2023-03-01T01:08:56;8.02;;;4.80;;
71969;SDS011;59838;52.152;5.436;2023-03-01T01:11:23;8.27;;;5.75;;
71969;SDS011;59838;52.152;5.436;2023-03-01T01:13:52;8.05;;;5.22;;
71969;SDS011;59838;52.152;5.436;2023-03-01T01:16:20;11.23;;;5.60;;
71969;SDS011;59838;52.152;5.436;2023-03-01T01:18:48;9.98;;;5.05;;
71969;SDS011;59838;52.152;5.436;2023-03-01T01:21:16;7.68;;;5.65;;
71969;SDS011;59838;52.152;5.436;2023-03-01T01:23:44;7.18;;;4.78;;
71969;SDS011;59838;52.152;5.436;2023-03-01T01:26:13;9.80;;;5.32;;
71969;SDS011;59838;52.152;5.436;2023-03-01T01:28:42;8.43;;;5.33;;
71969;SDS011;59838;52.152;5.436;2023-03-01T01:31:08;12.35;;;5.82;;
71969;SDS011;59838;52.152;5.436;2023-03-01T01:33:35;10.25;;;5.57;;
71969;SDS011;59838;52.152;5.436;2023-03-01T01:36:07;8.57;;;4.90;;
71969;SDS011;59838;52.152;5.436;2023-03-01T01:38:35;11.90;;;5.63;;
71969;SDS011;59838;52.152;5.436;2023-03-01T01:41:03;7.57;;;5.30;;
71969;SDS011;59838;52.152;5.436;2023-03-01T01:43:34;8.57;;;4.88;;
71969;SDS011;59838;52.152;5.436;2023-03-01T01:46:07;8.77;;;5.15;;
71969;SDS011;59838;52.152;5.436;2023-03-01T01:49:19;10.57;;;5.20;;
71969;SDS011;59838;52.152;5.436;2023-03-01T01:51:52;11.15;;;5.28;;
71969;SDS011;59838;52.152;5.436;2023-03-01T01:54:31;10.00;;;5.40;;
71969;SDS011;59838;52.152;5.436;2023-03-01T01:57:09;12.32;;;5.82;;
71969;SDS011;59838;52.152;5.436;2023-03-01T01:59:40;9.80;;;6.05;;
71969;SDS011;59838;52.152;5.436;2023-03-01T02:02:09;18.25;;;6.82;;
71969;SDS011;59838;52.152;5.436;2023-03-01T02:04:37;19.15;;;6.70;;
71969;SDS011;59838;52.152;5.436;2023-03-01T02:07:14;10.07;;;5.77;;
71969;SDS011;59838;52.152;5.436;2023-03-01T02:09:44;12.07;;;6.00;;
71969;SDS011;59838;52.152;5.436;2023-03-01T02:12:14;12.23;;;5.97;;
71969;SDS011;59838;52.152;5.436;2023-03-01T02:14:43;11.68;;;6.40;;
71969;SDS011;59838;52.152;5.436;2023-03-01T02:17:11;9.82;;;6.40;;
71969;SDS011;59838;52.152;5.436;2023-03-01T02:19:47;17.27;;;6.20;;
71969;SDS011;59838;52.152;5.436;2023-03-01T02:22:37;10.10;;;6.15;;
71969;SDS011;59838;52.152;5.436;2023-03-01T02:30:45;14.48;;;7.35;;
71969;SDS011;59838;52.152;5.436;2023-03-01T02:33:33;9.33;;;6.03;;
71969;SDS011;59838;52.152;5.436;2023-03-01T02:36:09;11.18;;;6.78;;
71969;SDS011;59838;52.152;5.436;2023-03-01T02:38:40;13.60;;;6.97;;
71969;SDS011;59838;52.152;5.436;2023-03-01T02:41:08;11.52;;;5.47;;
71969;SDS011;59838;52.152;5.436;2023-03-01T02:43:41;16.40;;;7.18;;
71969;SDS011;59838;52.152;5.436;2023-03-01T02:46:13;12.73;;;7.07;;
71969;SDS011;59838;52.152;5.436;2023-03-01T02:48:46;11.98;;;5.88;;
71969;SDS011;59838;52.152;5.436;2023-03-01T02:51:18;11.27;;;6.63;;
71969;SDS011;59838;52.152;5.436;2023-03-01T02:56:54;11.85;;;6.28;;
71969;SDS011;59838;52.152;5.436;2023-03-01T02:59:22;12.47;;;6.63;;
71969;SDS011;59838;52.152;5.436;2023-03-01T03:01:53;12.02;;;5.65;;
71969;SDS011;59838;52.152;5.436;2023-03-01T03:04:19;11.90;;;6.40;;
71969;SDS011;59838;52.152;5.436;2023-03-01T03:06:48;11.55;;;6.22;;
71969;SDS011;59838;52.152;5.436;2023-03-01T03:09:16;16.67;;;6.68;;
71969;SDS011;59838;52.152;5.436;2023-03-01T03:11:44;11.17;;;5.83;;
71969;SDS011;59838;52.152;5.436;2023-03-01T03:14:11;13.13;;;6.75;;
71969;SDS011;59838;52.152;5.436;2023-03-01T03:16:43;9.68;;;6.15;;
71969;SDS011;59838;52.152;5.436;2023-03-01T03:19:12;12.02;;;6.82;;
71969;SDS011;59838;52.152;5.436;2023-03-01T03:21:39;8.55;;;4.88;;
71969;SDS011;59838;52.152;5.436;2023-03-01T03:24:06;10.30;;;5.63;;
71969;SDS011;59838;52.152;5.436;2023-03-01T03:26:32;14.88;;;6.80;;
71969;SDS011;59838;52.152;5.436;2023-03-01T03:28:59;13.02;;;7.13;;
71969;SDS011;59838;52.152;5.436;2023-03-01T03:31:25;12.98;;;5.88;;
71969;SDS011;59838;52.152;5.436;2023-03-01T03:33:53;10.73;;;6.88;;
71969;SDS011;59838;52.152;5.436;2023-03-01T03:36:21;13.10;;;6.13;;
71969;SDS011;59838;52.152;5.436;2023-03-01T03:38:49;25.38;;;6.68;;
71969;SDS011;59838;52.152;5.436;2023-03-01T03:41:16;13.65;;;6.45;;
71969;SDS011;59838;52.152;5.436;2023-03-01T03:43:43;11.25;;;6.43;;
71969;SDS011;59838;52.152;5.436;2023-03-01T03:46:10;10.43;;;6.40;;
71969;SDS011;59838;52.152;5.436;2023-03-01T03:48:41;10.17;;;6.57;;
71969;SDS011;59838;52.152;5.436;2023-03-01T03:51:11;11.32;;;5.78;;
71969;SDS011;59838;52.152;5.436;2023-03-01T03:53:42;13.85;;;6.97;;
71969;SDS011;59838;52.152;5.436;2023-03-01T03:56:10;10.70;;;6.10;;
71969;SDS011;59838;52.152;5.436;2023-03-01T03:58:38;13.88;;;7.90;;
71969;SDS011;59838;52.152;5.436;2023-03-01T04:01:04;13.97;;;7.03;;
71969;SDS011;59838;52.152;5.436;2023-03-01T04:03:31;11.13;;;6.00;;
71969;SDS011;59838;52.152;5.436;2023-03-01T04:05:59;8.00;;;5.60;;
71969;SDS011;59838;52.152;5.436;2023-03-01T04:08:27;13.80;;;6.53;;
71969;SDS011;59838;52.152;5.436;2023-03-01T04:11:01;9.65;;;5.80;;
71969;SDS011;59838;52.152;5.436;2023-03-01T04:13:49;12.97;;;5.47;;
71969;SDS011;59838;52.152;5.436;2023-03-01T04:16:16;10.45;;;6.47;;
71969;SDS011;59838;52.152;5.436;2023-03-01T04:18:44;11.98;;;7.00;;
71969;SDS011;59838;52.152;5.436;2023-03-01T04:21:10;11.52;;;7.18;;
71969;SDS011;59838;52.152;5.436;2023-03-01T04:23:37;9.88;;;5.80;;
71969;SDS011;59838;52.152;5.436;2023-03-01T04:26:04;12.53;;;6.10;;
71969;SDS011;59838;52.152;5.436;2023-03-01T04:28:38;9.68;;;5.75;;
71969;SDS011;59838;52.152;5.436;2023-03-01T04:31:10;14.35;;;6.25;;
71969;SDS011;59838;52.152;5.436;2023-03-01T04:33:42;10.60;;;5.38;;
71969;SDS011;59838;52.152;5.436;2023-03-01T04:36:13;11.27;;;6.53;;
71969;SDS011;59838;52.152;5.436;2023-03-01T04:38:41;8.17;;;5.00;;
71969;SDS011;59838;52.152;5.436;2023-03-01T04:41:09;9.50;;;5.72;;
71969;SDS011;59838;52.152;5.436;2023-03-01T04:43:37;9.27;;;6.38;;
71969;SDS011;59838;52.152;5.436;2023-03-01T04:46:05;11.48;;;5.63;;
71969;SDS011;59838;52.152;5.436;2023-03-01T04:48:40;11.93;;;5.90;;
71969;SDS011;59838;52.152;5.436;2023-03-01T04:51:08;13.17;;;6.37;;
71969;SDS011;59838;52.152;5.436;2023-03-01T04:53:35;11.90;;;6.45;;
71969;SDS011;59838;52.152;5.436;2023-03-01T04:56:04;12.25;;;6.35;;
71969;SDS011;59838;52.152;5.436;2023-03-01T04:58:32;13.93;;;6.13;;
71969;SDS011;59838;52.152;5.436;2023-03-01T05:00:58;11.18;;;5.85;;
71969;SDS011;59838;52.152;5.436;2023-03-01T05:03:25;10.00;;;6.20;;
71969;SDS011;59838;52.152;5.436;2023-03-01T05:05:52;8.70;;;6.22;;
71969;SDS011;59838;52.152;5.436;2023-03-01T05:08:18;13.18;;;6.72;;
71969;SDS011;59838;52.152;5.436;2023-03-01T05:10:50;8.27;;;5.63;;
71969;SDS011;59838;52.152;5.436;2023-03-01T05:13:19;13.23;;;6.00;;
71969;SDS011;59838;52.152;5.436;2023-03-01T05:16:00;9.87;;;5.23;;
71969;SDS011;59838;52.152;5.436;2023-03-01T05:18:28;10.88;;;5.03;;
71969;SDS011;59838;52.152;5.436;2023-03-01T05:21:04;8.98;;;4.65;;
71969;SDS011;59838;52.152;5.436;2023-03-01T05:23:33;9.02;;;5.25;;
71969;SDS011;59838;52.152;5.436;2023-03-01T05:26:00;11.52;;;4.75;;
71969;SDS011;59838;52.152;5.436;2023-03-01T05:28:28;14.13;;;5.77;;
71969;SDS011;59838;52.152;5.436;2023-03-01T05:30:55;8.80;;;5.30;;
71969;SDS011;59838;52.152;5.436;2023-03-01T05:33:23;11.38;;;6.18;;
71969;SDS011;59838;52.152;5.436;2023-03-01T05:35:51;10.10;;;5.60;;
71969;SDS011;59838;52.152;5.436;2023-03-01T05:38:19;8.55;;;4.82;;
71969;SDS011;59838;52.152;5.436;2023-03-01T05:40:47;7.43;;;4.33;;
71969;SDS011;59838;52.152;5.436;2023-03-01T05:43:15;9.48;;;5.88;;
71969;SDS011;59838;52.152;5.436;2023-03-01T05:45:43;10.98;;;5.60;;
71969;SDS011;59838;52.152;5.436;2023-03-01T05:48:10;9.95;;;5.47;;
71969;SDS011;59838;52.152;5.436;2023-03-01T05:50:39;8.40;;;4.68;;
71969;SDS011;59838;52.152;5.436;2023-03-01T05:53:13;10.40;;;4.57;;
71969;SDS011;59838;52.152;5.436;2023-03-01T05:55:41;9.63;;;5.13;;
71969;SDS011;59838;52.152;5.436;2023-03-01T05:58:10;6.78;;;4.95;;
71969;SDS011;59838;52.152;5.436;2023-03-01T06:00:40;9.77;;;5.15;;
71969;SDS011;59838;52.152;5.436;2023-03-01T06:03:09;11.23;;;5.43;;
71969;SDS011;59838;52.152;5.436;2023-03-01T06:05:37;9.23;;;5.40;;
71969;SDS011;59838;52.152;5.436;2023-03-01T06:08:05;9.55;;;5.25;;
71969;SDS011;59838;52.152;5.436;2023-03-01T06:10:32;10.38;;;5.85;;
71969;SDS011;59838;52.152;5.436;2023-03-01T06:12:59;8.70;;;5.25;;
71969;SDS011;59838;52.152;5.436;2023-03-01T06:15:25;8.70;;;5.00;;
71969;SDS011;59838;52.152;5.436;2023-03-01T06:17:53;7.80;;;4.53;;
71969;SDS011;59838;52.152;5.436;2023-03-01T06:20:25;8.48;;;4.25;;
71969;SDS011;59838;52.152;5.436;2023-03-01T06:22:54;9.88;;;5.30;;
71969;SDS011;59838;52.152;5.436;2023-03-01T06:25:22;11.35;;;5.10;;
71969;SDS011;59838;52.152;5.436;2023-03-01T06:27:50;15.80;;;6.57;;
71969;SDS011;59838;52.152;5.436;2023-03-01T06:30:19;11.67;;;5.70;;
71969;SDS011;59838;52.152;5.436;2023-03-01T06:32:47;10.55;;;5.50;;
71969;SDS011;59838;52.152;5.436;2023-03-01T06:35:15;16.13;;;6.38;;
71969;SDS011;59838;52.152;5.436;2023-03-01T06:37:46;9.35;;;6.68;;
71969;SDS011;59838;52.152;5.436;2023-03-01T06:40:14;13.25;;;6.30;;
71969;SDS011;59838;52.152;5.436;2023-03-01T06:42:42;12.60;;;6.63;;
71969;SDS011;59838;52.152;5.436;2023-03-01T06:45:10;14.93;;;7.10;;
71969;SDS011;59838;52.152;5.436;2023-03-01T06:47:36;10.90;;;5.72;;
71969;SDS011;59838;52.152;5.436;2023-03-01T06:50:19;16.88;;;7.25;;
71969;SDS011;59838;52.152;5.436;2023-03-01T06:52:58;13.88;;;7.07;;
71969;SDS011;59838;52.152;5.436;2023-03-01T06:55:24;13.20;;;7.20;;
71969;SDS011;59838;52.152;5.436;2023-03-01T06:57:55;16.90;;;8.02;;
71969;SDS011;59838;52.152;5.436;2023-03-01T07:00:23;15.93;;;7.80;;
71969;SDS011;59838;52.152;5.436;2023-03-01T07:02:50;18.73;;;7.95;;
71969;SDS011;59838;52.152;5.436;2023-03-01T07:05:17;17.55;;;8.48;;
71969;SDS011;59838;52.152;5.436;2023-03-01T07:07:43;13.73;;;7.73;;
71969;SDS011;59838;52.152;5.436;2023-03-01T07:10:10;14.57;;;7.40;;
71969;SDS011;59838;52.152;5.436;2023-03-01T07:12:37;12.57;;;7.35;;
71969;SDS011;59838;52.152;5.436;2023-03-01T07:15:04;13.90;;;7.75;;
71969;SDS011;59838;52.152;5.436;2023-03-01T07:17:31;16.52;;;7.97;;
71969;SDS011;59838;52.152;5.436;2023-03-01T07:19:58;13.33;;;7.17;;
71969;SDS011;59838;52.152;5.436;2023-03-01T07:22:24;12.32;;;7.18;;
71969;SDS011;59838;52.152;5.436;2023-03-01T07:24:50;13.93;;;8.13;;
71969;SDS011;59838;52.152;5.436;2023-03-01T07:27:17;14.38;;;8.20;;
71969;SDS011;59838;52.152;5.436;2023-03-01T07:29:43;14.48;;;8.02;;
71969;SDS011;59838;52.152;5.436;2023-03-01T07:32:13;15.23;;;8.37;;
71969;SDS011;59838;52.152;5.436;2023-03-01T07:34:39;14.82;;;8.27;;
71969;SDS011;59838;52.152;5.436;2023-03-01T07:37:06;14.60;;;8.55;;
71969;SDS011;59838;52.152;5.436;2023-03-01T07:39:32;14.27;;;8.80;;
71969;SDS011;59838;52.152;5.436;2023-03-01T07:41:59;14.48;;;8.07;;
71969;SDS011;59838;52.152;5.436;2023-03-01T07:44:25;12.77;;;8.20;;
71969;SDS011;59838;52.152;5.436;2023-03-01T07:46:52;12.38;;;8.43;;
71969;SDS011;59838;52.152;5.436;2023-03-01T07:49:22;14.13;;;8.43;;
71969;SDS011;59838;52.152;5.436;2023-03-01T07:51:49;16.13;;;8.32;;
71969;SDS011;59838;52.152;5.436;2023-03-01T07:54:15;15.93;;;8.98;;
71969;SDS011;59838;52.152;5.436;2023-03-01T07:56:42;11.67;;;7.63;;
71969;SDS011;59838;52.152;5.436;2023-03-01T07:59:08;10.98;;;7.80;;
71969;SDS011;59838;52.152;5.436;2023-03-01T08:02:09;14.35;;;9.02;;
71969;SDS011;59838;52.152;5.436;2023-03-01T08:04:37;16.65;;;8.00;;
71969;SDS011;59838;52.152;5.436;2023-03-01T08:07:04;14.55;;;8.20;;
71969;SDS011;59838;52.152;5.436;2023-03-01T08:09:34;14.43;;;8.60;;
71969;SDS011;59838;52.152;5.436;2023-03-01T08:12:01;12.40;;;8.55;;
71969;SDS011;59838;52.152;5.436;2023-03-01T08:14:28;13.05;;;7.75;;
71969;SDS011;59838;52.152;5.436;2023-03-01T08:16:54;10.63;;;7.03;;
71969;SDS011;59838;52.152;5.436;2023-03-01T08:19:21;12.10;;;7.82;;
71969;SDS011;59838;52.152;5.436;2023-03-01T08:21:49;13.60;;;8.20;;
71969;SDS011;59838;52.152;5.436;2023-03-01T08:24:15;15.23;;;6.85;;
71969;SDS011;59838;52.152;5.436;2023-03-01T08:26:42;12.30;;;6.95;;
71969;SDS011;59838;52.152;5.436;2023-03-01T08:29:09;14.95;;;7.18;;
71969;SDS011;59838;52.152;5.436;2023-03-01T08:31:36;9.57;;;6.43;;
71969;SDS011;59838;52.152;5.436;2023-03-01T08:34:09;10.70;;;5.73;;
71969;SDS011;59838;52.152;5.436;2023-03-01T08:36:41;7.68;;;5.30;;
71969;SDS011;59838;52.152;5.436;2023-03-01T08:39:09;9.65;;;5.95;;
71969;SDS011;59838;52.152;5.436;2023-03-01T08:41:38;7.78;;;5.00;;
71969;SDS011;59838;52.152;5.436;2023-03-01T08:44:05;7.50;;;4.13;;
71969;SDS011;59838;52.152;5.436;2023-03-01T08:46:37;6.80;;;4.07;;
71969;SDS011;59838;52.152;5.436;2023-03-01T08:49:16;6.13;;;4.05;;
71969;SDS011;59838;52.152;5.436;2023-03-01T08:51:45;5.82;;;4.60;;
71969;SDS011;59838;52.152;5.436;2023-03-01T08:54:16;8.82;;;4.35;;
71969;SDS011;59838;52.152;5.436;2023-03-01T08:56:47;6.40;;;4.88;;
71969;SDS011;59838;52.152;5.436;2023-03-01T08:59:14;6.47;;;4.10;;
71969;SDS011;59838;52.152;5.436;2023-03-01T09:01:41;6.72;;;4.38;;
71969;SDS011;59838;52.152;5.436;2023-03-01T09:04:11;6.93;;;4.55;;
71969;SDS011;59838;52.152;5.436;2023-03-01T09:06:39;7.70;;;3.97;;
71969;SDS011;59838;52.152;5.436;2023-03-01T09:09:05;5.22;;;3.55;;
71969;SDS011;59838;52.152;5.436;2023-03-01T09:11:32;6.50;;;3.60;;
71969;SDS011;59838;52.152;5.436;2023-03-01T09:13:59;6.78;;;3.90;;
71969;SDS011;59838;52.152;5.436;2023-03-01T09:16:26;5.80;;;4.20;;
71969;SDS011;59838;52.152;5.436;2023-03-01T09:18:53;5.82;;;3.65;;
71969;SDS011;59838;52.152;5.436;2023-03-01T09:21:21;6.05;;;3.40;;
71969;SDS011;59838;52.152;5.436;2023-03-01T09:24:04;6.20;;;3.07;;
71969;SDS011;59838;52.152;5.436;2023-03-01T09:26:31;7.45;;;3.40;;
71969;SDS011;59838;52.152;5.436;2023-03-01T09:28:58;7.43;;;3.45;;
71969;SDS011;59838;52.152;5.436;2023-03-01T09:31:25;4.03;;;2.50;;
71969;SDS011;59838;52.152;5.436;2023-03-01T09:33:53;4.97;;;2.70;;
71969;SDS011;59838;52.152;5.436;2023-03-01T09:36:21;6.80;;;2.37;;
71969;SDS011;59838;52.152;5.436;2023-03-01T09:38:51;5.20;;;2.50;;
71969;SDS011;59838;52.152;5.436;2023-03-01T09:44:16;6.45;;;2.28;;
71969;SDS011;59838;52.152;5.436;2023-03-01T09:46:52;5.18;;;2.40;;
71969;SDS011;59838;52.152;5.436;2023-03-01T09:49:19;3.47;;;2.27;;
71969;SDS011;59838;52.152;5.436;2023-03-01T09:54:46;5.65;;;2.10;;
71969;SDS011;59838;52.152;5.436;2023-03-01T09:57:20;3.72;;;1.75;;
71969;SDS011;59838;52.152;5.436;2023-03-01T10:03:14;3.50;;;1.30;;
71969;SDS011;59838;52.152;5.436;2023-03-01T10:11:03;4.78;;;1.60;;
71969;SDS011;59838;52.152;5.436;2023-03-01T10:19:24;2.22;;;1.17;;
71969;SDS011;59838;52.152;5.436;2023-03-01T10:21:57;3.55;;;1.60;;
71969;SDS011;59838;52.152;5.436;2023-03-01T10:24:37;2.65;;;1.33;;
71969;SDS011;59838;52.152;5.436;2023-03-01T10:27:25;2.97;;;1.67;;
71969;SDS011;59838;52.152;5.436;2023-03-01T10:30:05;3.73;;;1.70;;
71969;SDS011;59838;52.152;5.436;2023-03-01T10:32:39;2.65;;;1.50;;
71969;SDS011;59838;52.152;5.436;2023-03-01T10:35:20;3.30;;;1.85;;
71969;SDS011;59838;52.152;5.436;2023-03-01T10:38:08;3.10;;;1.70;;
71969;SDS011;59838;52.152;5.436;2023-03-01T10:40:46;2.63;;;1.52;;
71969;SDS011;59838;52.152;5.436;2023-03-01T10:43:24;4.00;;;1.40;;
71969;SDS011;59838;52.152;5.436;2023-03-01T10:45:52;3.15;;;1.38;;
71969;SDS011;59838;52.152;5.436;2023-03-01T10:48:23;3.28;;;1.65;;
71969;SDS011;59838;52.152;5.436;2023-03-01T10:53:26;2.83;;;1.23;;
71969;SDS011;59838;52.152;5.436;2023-03-01T10:55:56;2.40;;;0.90;;
71969;SDS011;59838;52.152;5.436;2023-03-01T10:58:35;4.13;;;1.10;;
71969;SDS011;59838;52.152;5.436;2023-03-01T11:01:23;2.50;;;0.90;;
71969;SDS011;59838;52.152;5.436;2023-03-01T11:06:34;2.78;;;0.93;;
71969;SDS011;59838;52.152;5.436;2023-03-01T11:09:21;6.20;;;1.13;;
71969;SDS011;59838;52.152;5.436;2023-03-01T11:21:52;1.77;;;0.82;;
71969;SDS011;59838;52.152;5.436;2023-03-01T11:24:26;4.00;;;0.70;;
71969;SDS011;59838;52.152;5.436;2023-03-01T11:26:57;2.45;;;0.60;;
71969;SDS011;59838;52.152;5.436;2023-03-01T11:29:34;4.90;;;0.82;;
71969;SDS011;59838;52.152;5.436;2023-03-01T11:32:14;4.05;;;1.30;;
71969;SDS011;59838;52.152;5.436;2023-03-01T11:34:50;4.13;;;0.80;;
71969;SDS011;59838;52.152;5.436;2023-03-01T11:43:19;1.98;;;1.20;;
71969;SDS011;59838;52.152;5.436;2023-03-01T12:00:20;3.40;;;1.20;;
71969;SDS011;59838;52.152;5.436;2023-03-01T12:20:46;3.63;;;1.70;;
71969;SDS011;59838;52.152;5.436;2023-03-01T12:26:29;2.85;;;1.60;;
71969;SDS011;59838;52.152;5.436;2023-03-01T12:43:26;3.20;;;1.48;;
71969;SDS011;59838;52.152;5.436;2023-03-01T12:51:09;2.92;;;1.67;;
71969;SDS011;59838;52.152;5.436;2023-03-01T12:53:40;6.85;;;1.88;;
71969;SDS011;59838;52.152;5.436;2023-03-01T12:56:41;4.25;;;1.83;;
71969;SDS011;59838;52.152;5.436;2023-03-01T12:59:29;3.15;;;1.38;;
71969;SDS011;59838;52.152;5.436;2023-03-01T13:01:56;4.80;;;1.33;;
71969;SDS011;59838;52.152;5.436;2023-03-01T13:13:26;6.18;;;1.70;;
71969;SDS011;59838;52.152;5.436;2023-03-01T13:15:53;4.03;;;1.67;;
71969;SDS011;59838;52.152;5.436;2023-03-01T13:20:58;3.75;;;1.73;;
71969;SDS011;59838;52.152;5.436;2023-03-01T13:23:28;2.53;;;1.33;;
71969;SDS011;59838;52.152;5.436;2023-03-01T13:26:05;2.97;;;1.83;;
71969;SDS011;59838;52.152;5.436;2023-03-01T13:31:00;3.10;;;1.48;;
71969;SDS011;59838;52.152;5.436;2023-03-01T13:35:55;6.00;;;1.85;;
71969;SDS011;59838;52.152;5.436;2023-03-01T13:41:13;2.93;;;1.60;;
71969;SDS011;59838;52.152;5.436;2023-03-01T13:43:59;3.88;;;1.52;;
71969;SDS011;59838;52.152;5.436;2023-03-01T13:46:26;3.97;;;1.45;;
71969;SDS011;59838;52.152;5.436;2023-03-01T13:48:54;4.13;;;1.10;;
71969;SDS011;59838;52.152;5.436;2023-03-01T13:51:23;3.13;;;1.05;;
71969;SDS011;59838;52.152;5.436;2023-03-01T13:53:52;4.33;;;1.50;;
71969;SDS011;59838;52.152;5.436;2023-03-01T13:56:22;3.22;;;1.55;;
71969;SDS011;59838;52.152;5.436;2023-03-01T13:58:58;3.13;;;1.42;;
71969;SDS011;59838;52.152;5.436;2023-03-01T14:01:30;2.83;;;1.35;;
71969;SDS011;59838;52.152;5.436;2023-03-01T14:03:58;9.95;;;1.27;;
71969;SDS011;59838;52.152;5.436;2023-03-01T14:06:26;3.93;;;1.30;;
71969;SDS011;59838;52.152;5.436;2023-03-01T14:14:10;2.72;;;1.33;;
71969;SDS011;59838;52.152;5.436;2023-03-01T14:20:09;4.97;;;1.80;;
71969;SDS011;59838;52.152;5.436;2023-03-01T14:22:40;4.18;;;2.17;;
71969;SDS011;59838;52.152;5.436;2023-03-01T14:27:56;2.20;;;1.30;;
71969;SDS011;59838;52.152;5.436;2023-03-01T14:30:26;3.40;;;1.50;;
71969;SDS011;59838;52.152;5.436;2023-03-01T14:33:01;3.67;;;1.33;;
71969;SDS011;59838;52.152;5.436;2023-03-01T14:35:31;3.38;;;1.23;;
71969;SDS011;59838;52.152;5.436;2023-03-01T14:38:02;4.63;;;1.27;;
71969;SDS011;59838;52.152;5.436;2023-03-01T14:40:30;3.03;;;1.23;;
71969;SDS011;59838;52.152;5.436;2023-03-01T14:42:59;2.17;;;1.20;;
71969;SDS011;59838;52.152;5.436;2023-03-01T14:45:28;6.07;;;1.93;;
71969;SDS011;59838;52.152;5.436;2023-03-01T14:48:00;4.07;;;1.50;;
71969;SDS011;59838;52.152;5.436;2023-03-01T14:50:32;2.33;;;1.20;;
71969;SDS011;59838;52.152;5.436;2023-03-01T14:53:02;3.85;;;1.70;;
71969;SDS011;59838;52.152;5.436;2023-03-01T14:55:35;4.20;;;1.65;;
71969;SDS011;59838;52.152;5.436;2023-03-01T14:58:04;3.73;;;1.33;;
71969;SDS011;59838;52.152;5.436;2023-03-01T15:00:32;3.90;;;1.13;;
71969;SDS011;59838;52.152;5.436;2023-03-01T15:03:07;2.80;;;1.83;;
71969;SDS011;59838;52.152;5.436;2023-03-01T15:05:40;3.45;;;1.10;;
71969;SDS011;59838;52.152;5.436;2023-03-01T15:08:23;2.70;;;1.55;;
71969;SDS011;59838;52.152;5.436;2023-03-01T15:13:32;4.97;;;1.75;;
71969;SDS011;59838;52.152;5.436;2023-03-01T15:18:32;3.75;;;1.67;;
71969;SDS011;59838;52.152;5.436;2023-03-01T15:21:07;2.38;;;1.50;;
71969;SDS011;59838;52.152;5.436;2023-03-01T15:23:37;4.10;;;1.80;;
71969;SDS011;59838;52.152;5.436;2023-03-01T15:26:05;2.72;;;1.25;;
71969;SDS011;59838;52.152;5.436;2023-03-01T15:28:33;3.03;;;1.65;;
71969;SDS011;59838;52.152;5.436;2023-03-01T15:31:22;5.80;;;1.40;;
71969;SDS011;59838;52.152;5.436;2023-03-01T15:33:51;4.45;;;1.63;;
71969;SDS011;59838;52.152;5.436;2023-03-01T15:42:10;4.88;;;2.22;;
71969;SDS011;59838;52.152;5.436;2023-03-01T15:44:40;2.35;;;1.63;;
71969;SDS011;59838;52.152;5.436;2023-03-01T15:47:24;4.22;;;1.88;;
71969;SDS011;59838;52.152;5.436;2023-03-01T15:49:56;3.23;;;2.20;;
71969;SDS011;59838;52.152;5.436;2023-03-01T15:52:26;3.55;;;1.75;;
71969;SDS011;59838;52.152;5.436;2023-03-01T15:55:04;8.35;;;2.00;;
71969;SDS011;59838;52.152;5.436;2023-03-01T15:57:33;2.88;;;2.13;;
71969;SDS011;59838;52.152;5.436;2023-03-01T16:00:00;2.92;;;1.45;;
71969;SDS011;59838;52.152;5.436;2023-03-01T16:02:27;4.67;;;2.30;;
71969;SDS011;59838;52.152;5.436;2023-03-01T16:04:54;2.78;;;1.63;;
71969;SDS011;59838;52.152;5.436;2023-03-01T16:07:22;5.15;;;2.03;;
71969;SDS011;59838;52.152;5.436;2023-03-01T16:09:48;4.38;;;2.10;;
71969;SDS011;59838;52.152;5.436;2023-03-01T16:12:15;4.85;;;2.40;;
71969;SDS011;59838;52.152;5.436;2023-03-01T16:14:43;3.90;;;1.93;;
71969;SDS011;59838;52.152;5.436;2023-03-01T16:17:09;3.03;;;1.63;;
71969;SDS011;59838;52.152;5.436;2023-03-01T16:19:39;2.88;;;1.60;;
71969;SDS011;59838;52.152;5.436;2023-03-01T16:22:09;3.85;;;1.70;;
71969;SDS011;59838;52.152;5.436;2023-03-01T16:24:36;11.90;;;2.17;;
71969;SDS011;59838;52.152;5.436;2023-03-01T16:27:03;3.10;;;1.67;;
71969;SDS011;59838;52.152;5.436;2023-03-01T16:29:29;4.13;;;1.85;;
71969;SDS011;59838;52.152;5.436;2023-03-01T16:31:56;3.78;;;2.08;;
71969;SDS011;59838;52.152;5.436;2023-03-01T16:34:23;3.05;;;1.27;;
71969;SDS011;59838;52.152;5.436;2023-03-01T16:36:50;6.68;;;1.98;;
71969;SDS011;59838;52.152;5.436;2023-03-01T16:39:27;3.10;;;1.73;;
71969;SDS011;59838;52.152;5.436;2023-03-01T16:42:21;3.08;;;1.80;;
71969;SDS011;59838;52.152;5.436;2023-03-01T16:44:58;4.45;;;1.88;;
71969;SDS011;59838;52.152;5.436;2023-03-01T16:47:25;6.20;;;1.95;;
71969;SDS011;59838;52.152;5.436;2023-03-01T16:49:52;4.22;;;2.00;;
71969;SDS011;59838;52.152;5.436;2023-03-01T16:52:19;2.80;;;1.30;;
71969;SDS011;59838;52.152;5.436;2023-03-01T16:54:46;2.92;;;1.95;;
71969;SDS011;59838;52.152;5.436;2023-03-01T16:57:13;3.22;;;1.67;;
71969;SDS011;59838;52.152;5.436;2023-03-01T16:59:40;5.38;;;2.13;;
71969;SDS011;59838;52.152;5.436;2023-03-01T17:02:10;6.85;;;2.42;;
71969;SDS011;59838;52.152;5.436;2023-03-01T17:04:39;4.50;;;1.97;;
71969;SDS011;59838;52.152;5.436;2023-03-01T17:07:05;3.25;;;2.08;;
71969;SDS011;59838;52.152;5.436;2023-03-01T17:09:36;4.07;;;2.25;;
71969;SDS011;59838;52.152;5.436;2023-03-01T17:12:04;4.47;;;2.00;;
71969;SDS011;59838;52.152;5.436;2023-03-01T17:14:31;2.97;;;1.58;;
71969;SDS011;59838;52.152;5.436;2023-03-01T17:16:57;3.00;;;1.50;;
71969;SDS011;59838;52.152;5.436;2023-03-01T17:19:25;4.05;;;1.88;;
71969;SDS011;59838;52.152;5.436;2023-03-01T17:21:51;4.90;;;1.80;;
71969;SDS011;59838;52.152;5.436;2023-03-01T17:24:18;3.80;;;1.90;;
71969;SDS011;59838;52.152;5.436;2023-03-01T17:26:44;3.55;;;2.20;;
71969;SDS011;59838;52.152;5.436;2023-03-01T17:29:11;5.37;;;2.10;;
71969;SDS011;59838;52.152;5.436;2023-03-01T17:31:38;3.03;;;1.45;;